createdAt,value
2017-06-19T00:00:32.222Z,99.99
2017-06-19T00:01:41.111Z,99.99
2017-06-19T00:02:50.005Z,99.99
2017-06-19T00:03:59.224Z,99.99
2017-06-19T00:05:08.864Z,99.99
2017-06-19T00:06:17.762Z,99.99
2017-06-19T00:07:27.305Z,99.99
2017-06-19T00:08:36.518Z,99.99
2017-06-19T00:09:45.405Z,99.99
2017-06-19T00:10:54.324Z,99.99
2017-06-19T00:12:03.221Z,99.99
2017-06-19T00:13:12.437Z,99.99
2017-06-19T00:14:21.649Z,99.99
2017-06-19T00:15:30.538Z,99.99
2017-06-19T00:16:39.581Z,99.99
2017-06-19T00:17:48.479Z,99.99
2017-06-19T00:18:57.369Z,99.99
2017-06-19T00:20:06.261Z,99.99
2017-06-19T00:21:15.152Z,99.99
2017-06-19T00:22:24.515Z,99.99
2017-06-19T00:23:33.412Z,99.99
2017-06-19T00:24:42.305Z,99.99
2017-06-19T00:25:51.199Z,99.99
2017-06-19T00:27:00.089Z,99.99
2017-06-19T00:28:09.602Z,99.99
2017-06-19T00:29:18.813Z,99.99
2017-06-19T00:30:27.706Z,99.99
2017-06-19T00:31:36.597Z,99.99
2017-06-19T00:32:45.814Z,99.99
2017-06-19T00:33:54.854Z,99.99
2017-06-19T00:35:03.745Z,99.99
2017-06-19T00:36:12.962Z,99.99
2017-06-19T00:37:21.849Z,99.99
2017-06-19T00:38:31.070Z,99.99
2017-06-19T00:39:40.432Z,99.99
2017-06-19T00:40:49.645Z,99.99
2017-06-19T00:41:58.537Z,99.99
2017-06-19T00:43:07.754Z,99.99
2017-06-19T00:44:16.646Z,99.99
2017-06-19T00:45:25.537Z,99.99
2017-06-19T00:46:34.430Z,99.99
2017-06-19T00:47:43.646Z,99.99
2017-06-19T00:48:52.540Z,99.99
2017-06-19T00:50:01.425Z,99.99
2017-06-19T00:51:10.515Z,99.99
2017-06-19T00:52:19.406Z,99.99
2017-06-19T00:53:28.298Z,99.99
2017-06-19T00:54:37.189Z,99.99
2017-06-19T00:55:46.079Z,99.99
2017-06-19T00:56:54.969Z,99.99
2017-06-19T00:58:04.186Z,99.99
2017-06-19T00:59:13.078Z,99.99
2017-06-19T01:00:21.970Z,99.99
2017-06-19T01:01:31.188Z,99.99
2017-06-19T01:02:40.556Z,99.99
2017-06-19T01:03:49.770Z,99.99
2017-06-19T01:04:58.662Z,99.99
2017-06-19T01:06:07.555Z,99.99
2017-06-19T01:07:16.769Z,99.99
2017-06-19T01:08:25.982Z,99.99
2017-06-19T01:09:35.199Z,99.99
2017-06-19T01:10:44.091Z,99.99
2017-06-19T01:11:53.309Z,99.99
2017-06-19T01:13:02.203Z,99.99
2017-06-19T01:14:11.096Z,99.99
2017-06-19T01:15:19.985Z,99.99
2017-06-19T01:16:28.876Z,99.99
2017-06-19T01:17:38.095Z,99.99
2017-06-19T01:18:46.984Z,99.99
2017-06-19T01:19:56.176Z,99.99
2017-06-19T01:21:05.066Z,99.99
2017-06-19T01:22:14.282Z,99.99
2017-06-19T01:23:23.497Z,99.99
2017-06-19T01:24:32.415Z,99.99
2017-06-19T01:25:41.408Z,99.99
2017-06-19T01:26:50.302Z,99.99
2017-06-19T01:27:59.195Z,99.99
2017-06-19T01:29:08.088Z,99.99
2017-06-19T01:30:16.978Z,99.99
2017-06-19T01:31:25.868Z,99.99
2017-06-19T01:32:34.789Z,99.99
2017-06-19T01:33:43.678Z,99.99
2017-06-19T01:34:52.894Z,99.99
2017-06-19T01:36:02.108Z,99.99
2017-06-19T01:37:11.622Z,99.99
2017-06-19T01:38:20.510Z,99.99
2017-06-19T01:39:29.726Z,99.99
2017-06-19T01:40:38.947Z,99.99
2017-06-19T01:41:47.870Z,99.99
2017-06-19T01:42:57.234Z,99.99
2017-06-19T01:44:06.133Z,99.99
2017-06-19T01:45:15.347Z,99.99
2017-06-19T01:46:24.242Z,99.99
2017-06-19T01:47:33.787Z,99.99
2017-06-19T01:48:43.249Z,99.99
2017-06-19T01:49:52.463Z,99.99
2017-06-19T01:51:02.005Z,99.99
2017-06-19T01:52:10.895Z,99.99
2017-06-19T01:53:20.435Z,99.99
2017-06-19T01:54:29.952Z,99.99
2017-06-19T01:55:38.844Z,99.99
2017-06-19T01:56:48.061Z,99.99
2017-06-19T01:57:57.281Z,99.99
2017-06-19T01:59:06.495Z,99.99
2017-06-19T02:00:16.013Z,99.99
2017-06-19T02:01:24.908Z,99.99
2017-06-19T02:02:34.126Z,99.99
2017-06-19T02:03:43.345Z,99.99
2017-06-19T02:04:52.237Z,99.99
2017-06-19T02:06:01.130Z,99.99
2017-06-19T02:07:10.017Z,99.99
2017-06-19T02:08:19.228Z,99.99
2017-06-19T02:09:28.121Z,99.99
2017-06-19T02:10:37.661Z,99.99
2017-06-19T02:11:47.128Z,99.99
2017-06-19T02:12:56.021Z,99.99
2017-06-19T02:14:04.909Z,99.99
2017-06-19T02:15:13.798Z,99.99
2017-06-19T02:16:22.688Z,99.99
2017-06-19T02:17:31.630Z,99.99
2017-06-19T02:18:40.523Z,99.99
2017-06-19T02:19:49.415Z,99.99
2017-06-19T02:20:58.308Z,99.99
2017-06-19T02:22:07.524Z,99.99
2017-06-19T02:23:17.443Z,99.99
2017-06-19T02:24:26.333Z,99.99
2017-06-19T02:25:35.545Z,99.99
2017-06-19T02:26:44.442Z,99.99
2017-06-19T02:27:53.334Z,99.99
2017-06-19T02:29:02.653Z,99.99
2017-06-19T02:30:11.540Z,99.99
2017-06-19T02:31:21.079Z,99.99
2017-06-19T02:32:30.295Z,99.99
2017-06-19T02:33:39.186Z,99.99
2017-06-19T02:34:48.550Z,99.99
2017-06-19T02:35:58.092Z,99.99
2017-06-19T02:37:07.309Z,99.99
2017-06-19T02:38:16.852Z,99.99
2017-06-19T02:39:25.773Z,99.99
2017-06-19T02:40:34.764Z,99.99
2017-06-19T02:41:43.981Z,99.99
2017-06-19T02:42:53.520Z,99.99
2017-06-19T02:44:03.057Z,99.99
2017-06-19T02:45:12.275Z,99.99
2017-06-19T02:46:21.162Z,99.99
2017-06-19T02:47:30.057Z,99.99
2017-06-19T02:48:39.273Z,99.99
2017-06-19T02:49:48.489Z,99.99
2017-06-19T02:50:57.377Z,99.99
2017-06-19T02:52:06.415Z,99.99
2017-06-19T02:53:15.302Z,99.99
2017-06-19T02:54:24.192Z,99.99
2017-06-19T02:55:33.407Z,99.99
2017-06-19T02:56:42.295Z,99.99
2017-06-19T02:57:51.560Z,99.99
2017-06-19T02:59:00.450Z,99.99
2017-06-19T03:00:09.341Z,99.99
2017-06-19T03:01:18.230Z,99.99
2017-06-19T03:02:27.119Z,99.99
2017-06-19T03:03:36.040Z,99.99
2017-06-19T03:04:45.253Z,99.99
2017-06-19T03:05:54.147Z,99.99
2017-06-19T03:07:03.362Z,99.99
2017-06-19T03:08:12.248Z,99.99
2017-06-19T03:09:21.608Z,99.99
2017-06-19T03:10:30.496Z,99.99
2017-06-19T03:11:39.386Z,99.99
2017-06-19T03:12:48.273Z,99.99
2017-06-19T03:13:57.162Z,99.99
2017-06-19T03:15:06.105Z,99.99
2017-06-19T03:16:15.001Z,99.99
2017-06-19T03:17:24.219Z,99.99
2017-06-19T03:18:33.107Z,99.99
2017-06-19T03:19:41.995Z,99.99
2017-06-19T03:20:50.885Z,99.99
2017-06-19T03:21:59.776Z,99.99
2017-06-19T03:23:08.672Z,99.99
2017-06-19T03:24:17.560Z,99.99
2017-06-19T03:25:26.779Z,99.99
2017-06-19T03:26:35.998Z,99.99
2017-06-19T03:27:44.886Z,99.99
2017-06-19T03:28:53.774Z,99.99
2017-06-19T03:30:02.666Z,99.99
2017-06-19T03:31:12.207Z,99.99
2017-06-19T03:32:21.397Z,99.99
2017-06-19T03:33:30.284Z,99.99
2017-06-19T03:34:39.170Z,99.99
2017-06-19T03:35:48.387Z,99.99
2017-06-19T03:36:57.280Z,99.99
2017-06-19T03:38:06.270Z,99.99
2017-06-19T03:39:15.489Z,99.99
2017-06-19T03:40:24.702Z,99.99
2017-06-19T03:41:34.241Z,99.99
2017-06-19T03:42:43.455Z,99.99
2017-06-19T03:43:52.445Z,99.99
2017-06-19T03:45:01.657Z,99.99
2017-06-19T03:46:10.574Z,99.99
2017-06-19T03:47:20.111Z,99.99
2017-06-19T03:48:29.019Z,99.99
2017-06-19T03:49:38.234Z,99.99
2017-06-19T03:50:47.127Z,99.99
2017-06-19T03:51:56.347Z,99.99
2017-06-19T03:53:05.238Z,99.99
2017-06-19T03:54:14.774Z,99.99
2017-06-19T03:55:23.813Z,99.99
2017-06-19T03:56:32.702Z,99.99
2017-06-19T03:57:41.596Z,99.99
2017-06-19T03:58:51.134Z,99.99
2017-06-19T04:00:00.675Z,99.99
2017-06-19T04:01:10.263Z,99.99
2017-06-19T04:02:19.154Z,99.99
2017-06-19T04:03:29.573Z,99.99
2017-06-19T04:04:38.468Z,99.99
2017-06-19T04:05:47.362Z,99.99
2017-06-19T04:06:56.632Z,99.99
2017-06-19T04:08:05.848Z,99.99
2017-06-19T04:09:14.738Z,99.99
2017-06-19T04:10:23.628Z,99.99
2017-06-19T04:11:32.843Z,99.99
2017-06-19T04:12:42.158Z,99.99
2017-06-19T04:13:51.048Z,99.99
2017-06-19T04:14:59.937Z,99.99
2017-06-19T04:16:08.830Z,99.99
2017-06-19T04:17:17.717Z,99.99
2017-06-19T04:18:27.235Z,99.99
2017-06-19T04:19:36.447Z,99.99
2017-06-19T04:20:45.336Z,99.99
2017-06-19T04:21:54.551Z,99.99
2017-06-19T04:23:03.770Z,99.99
2017-06-19T04:24:13.237Z,99.99
2017-06-19T04:25:22.127Z,99.99
2017-06-19T04:26:31.019Z,99.99
2017-06-19T04:27:40.235Z,99.99
2017-06-19T04:28:49.129Z,99.99
2017-06-19T04:29:58.126Z,99.99
2017-06-19T04:31:07.672Z,99.99
2017-06-19T04:32:16.564Z,99.99
2017-06-19T04:33:25.453Z,99.99
2017-06-19T04:34:34.346Z,99.99
2017-06-19T04:35:43.890Z,99.99
2017-06-19T04:36:52.782Z,99.99
2017-06-19T04:38:01.670Z,99.99
2017-06-19T04:39:10.558Z,99.99
2017-06-19T04:40:19.450Z,99.99
2017-06-19T04:41:29.103Z,99.99
2017-06-19T04:42:38.320Z,99.99
2017-06-19T04:43:47.209Z,99.99
2017-06-19T04:44:56.100Z,99.99
2017-06-19T04:46:05.641Z,99.99
2017-06-19T04:47:14.584Z,99.99
2017-06-19T04:48:23.803Z,99.99
2017-06-19T04:49:32.695Z,99.99
2017-06-19T04:50:41.909Z,99.99
2017-06-19T04:51:50.797Z,99.99
2017-06-19T04:52:59.742Z,99.99
2017-06-19T04:54:09.281Z,99.99
2017-06-19T04:55:18.171Z,99.99
2017-06-19T04:56:27.386Z,99.99
2017-06-19T04:57:36.277Z,99.99
2017-06-19T04:58:45.325Z,99.99
2017-06-19T04:59:54.540Z,99.99
2017-06-19T05:01:03.431Z,99.99
2017-06-19T05:02:12.971Z,99.99
2017-06-19T05:03:21.861Z,99.99
2017-06-19T05:04:30.806Z,99.99
2017-06-19T05:05:39.696Z,99.99
2017-06-19T05:06:48.587Z,99.99
2017-06-19T05:07:57.476Z,99.99
2017-06-19T05:09:06.369Z,99.99
2017-06-19T05:10:15.286Z,99.99
2017-06-19T05:11:24.511Z,99.99
2017-06-19T05:12:33.404Z,99.99
2017-06-19T05:13:42.338Z,99.99
2017-06-19T05:14:51.555Z,99.99
2017-06-19T05:16:00.448Z,99.99
2017-06-19T05:17:09.345Z,99.99
2017-06-19T05:18:18.238Z,99.99
2017-06-19T05:19:27.129Z,99.99
2017-06-19T05:20:36.041Z,99.99
2017-06-19T05:21:45.096Z,99.99
2017-06-19T05:22:54.314Z,99.99
2017-06-19T05:24:03.914Z,99.99
2017-06-19T05:25:12.805Z,99.99
2017-06-19T05:26:21.695Z,99.99
2017-06-19T05:27:30.590Z,99.99
2017-06-19T05:28:39.804Z,99.99
2017-06-19T05:29:49.350Z,99.99
2017-06-19T05:30:58.242Z,99.99
2017-06-19T05:32:07.463Z,99.99
2017-06-19T05:33:16.833Z,99.99
2017-06-19T05:34:25.724Z,99.99
2017-06-19T05:35:34.618Z,99.99
2017-06-19T05:36:43.511Z,99.99
2017-06-19T05:37:52.403Z,99.99
2017-06-19T05:39:01.450Z,99.99
2017-06-19T05:40:10.349Z,99.99
2017-06-19T05:41:19.241Z,99.99
2017-06-19T05:42:28.462Z,99.99
2017-06-19T05:43:37.359Z,99.99
2017-06-19T05:44:46.624Z,99.99
2017-06-19T05:45:56.166Z,99.99
2017-06-19T05:47:05.057Z,99.99
2017-06-19T05:48:13.948Z,99.99
2017-06-19T05:49:22.838Z,99.99
2017-06-19T05:50:31.878Z,99.99
2017-06-19T05:51:40.771Z,99.99
2017-06-19T05:52:49.665Z,99.99
2017-06-19T05:53:58.887Z,99.99
2017-06-19T05:55:08.108Z,99.99
2017-06-19T05:56:17.329Z,99.99
2017-06-19T05:57:26.543Z,99.99
2017-06-19T05:58:35.437Z,99.99
2017-06-19T05:59:44.333Z,99.99
2017-06-19T06:00:53.229Z,99.99
2017-06-19T06:02:02.446Z,99.99
2017-06-19T06:03:12.001Z,99.99
2017-06-19T06:04:20.899Z,99.99
2017-06-19T06:05:29.835Z,99.99
2017-06-19T06:06:38.725Z,99.99
2017-06-19T06:07:47.621Z,99.99
2017-06-19T06:08:56.512Z,99.99
2017-06-19T06:10:05.404Z,99.99
2017-06-19T06:11:14.300Z,99.99
2017-06-19T06:12:23.536Z,99.99
2017-06-19T06:13:32.435Z,99.99
2017-06-19T06:14:41.326Z,99.99
2017-06-19T06:15:50.545Z,99.99
2017-06-19T06:17:00.093Z,99.99
2017-06-19T06:18:09.669Z,99.99
2017-06-19T06:19:18.569Z,99.99
2017-06-19T06:20:27.471Z,99.99
2017-06-19T06:21:36.374Z,99.99
2017-06-19T06:22:45.573Z,99.99
2017-06-19T06:23:54.792Z,99.99
2017-06-19T06:25:04.339Z,99.99
2017-06-19T06:26:13.237Z,99.99
2017-06-19T06:27:22.130Z,99.99
2017-06-19T06:28:31.028Z,99.99
2017-06-19T06:29:40.247Z,99.99
2017-06-19T06:30:49.462Z,99.99
2017-06-19T06:31:58.683Z,99.99
2017-06-19T06:33:07.626Z,99.99
2017-06-19T06:34:16.519Z,99.99
2017-06-19T06:35:25.430Z,99.99
2017-06-19T06:36:34.597Z,99.99
2017-06-19T06:37:43.884Z,99.99
2017-06-19T06:38:53.180Z,99.99
2017-06-19T06:40:02.426Z,99.99
2017-06-19T06:41:11.408Z,99.99
2017-06-19T06:42:20.379Z,99.99
2017-06-19T06:43:29.595Z,99.99
2017-06-19T06:44:38.488Z,99.99
2017-06-19T06:45:47.382Z,99.99
2017-06-19T06:46:56.597Z,99.99
2017-06-19T06:48:05.812Z,99.99
2017-06-19T06:49:15.028Z,99.99
2017-06-19T06:50:23.922Z,99.99
2017-06-19T06:51:32.817Z,99.99
2017-06-19T06:52:42.039Z,99.99
2017-06-19T06:53:50.941Z,99.99
2017-06-19T06:54:59.842Z,99.99
2017-06-19T06:56:08.748Z,99.99
2017-06-19T06:57:17.651Z,99.99
2017-06-19T06:58:26.552Z,99.99
2017-06-19T06:59:35.450Z,99.99
2017-06-19T07:00:44.665Z,99.99
2017-06-19T07:01:53.893Z,99.99
2017-06-19T07:03:03.115Z,99.99
2017-06-19T07:04:12.334Z,99.99
2017-06-19T07:05:21.228Z,99.99
2017-06-19T07:06:30.448Z,99.99
2017-06-19T07:07:39.989Z,99.99
2017-06-19T07:08:49.212Z,99.99
2017-06-19T07:09:58.428Z,99.99
2017-06-19T07:11:07.321Z,99.99
2017-06-19T07:12:16.213Z,99.99
2017-06-19T07:13:25.101Z,99.99
2017-06-19T07:14:34.023Z,99.99
2017-06-19T07:15:43.303Z,99.99
2017-06-19T07:16:52.198Z,99.99
2017-06-19T07:18:01.097Z,99.99
2017-06-19T07:19:10.317Z,99.3
2017-06-19T07:20:19.535Z,99.88
2017-06-19T07:21:28.584Z,99.5
2017-06-19T07:22:37.804Z,97.67
2017-06-19T07:23:46.697Z,97.57
2017-06-19T07:24:55.599Z,95.06
2017-06-19T07:26:04.496Z,95.26
2017-06-19T07:27:13.575Z,96.08
2017-06-19T07:28:22.818Z,95.79
2017-06-19T07:29:31.713Z,97.14
2017-06-19T07:30:40.932Z,98.34
2017-06-19T07:31:49.828Z,96.51
2017-06-19T07:32:58.858Z,95.31
2017-06-19T07:34:08.083Z,95.31
2017-06-19T07:35:17.634Z,95.88
2017-06-19T07:36:26.531Z,95.69
2017-06-19T07:37:35.749Z,94.05
2017-06-19T07:38:44.747Z,94.24
2017-06-19T07:39:53.643Z,94.24
2017-06-19T07:41:02.865Z,95.31
2017-06-19T07:42:11.759Z,93.28
2017-06-19T07:43:20.652Z,93.37
2017-06-19T07:44:30.032Z,94.15
2017-06-19T07:45:39.256Z,92.41
2017-06-19T07:46:48.163Z,91.2
2017-06-19T07:47:57.403Z,89.75
2017-06-19T07:49:06.330Z,90.43
2017-06-19T07:50:15.285Z,89.85
2017-06-19T07:51:24.508Z,90.95
2017-06-19T07:52:33.410Z,91.63
2017-06-19T07:53:42.312Z,91.92
2017-06-19T07:54:51.214Z,91.59
2017-06-19T07:56:00.162Z,91.59
2017-06-19T07:57:09.718Z,91.97
2017-06-19T07:58:18.613Z,92.11
2017-06-19T07:59:27.510Z,91.73
2017-06-19T08:00:36.742Z,91.25
2017-06-19T08:01:45.797Z,90.28
2017-06-19T08:02:54.702Z,91.67
2017-06-19T08:04:03.931Z,90.57
2017-06-19T08:05:12.836Z,91.05
2017-06-19T08:06:21.733Z,90.37
2017-06-19T08:07:31.111Z,89.61
2017-06-19T08:08:40.999Z,88.45
2017-06-19T08:09:51.199Z,88.39
2017-06-19T08:11:00.433Z,88.1
2017-06-19T08:12:09.981Z,88.2
2017-06-19T08:13:19.125Z,90.33
2017-06-19T08:14:28.025Z,89.55
2017-06-19T08:15:37.248Z,88.1
2017-06-19T08:16:46.472Z,88.59
2017-06-19T08:17:55.367Z,88.01
2017-06-19T08:19:04.641Z,88.68
2017-06-19T08:20:14.850Z,85.88
2017-06-19T08:21:24.073Z,86.6
2017-06-19T08:22:32.973Z,85.93
2017-06-19T08:23:41.872Z,86.21
2017-06-19T08:24:51.568Z,86.69
2017-06-19T08:26:00.463Z,85.44
2017-06-19T08:27:09.686Z,85.1
2017-06-19T08:28:19.229Z,86.06
2017-06-19T08:29:28.494Z,86.65
2017-06-19T08:30:38.564Z,82.78
2017-06-19T08:31:47.469Z,83.06
2017-06-19T08:32:57.674Z,80.74
2017-06-19T08:34:07.224Z,82.1
2017-06-19T08:35:17.099Z,82.78
2017-06-19T08:36:26.472Z,82.78
2017-06-19T08:37:36.018Z,82.29
2017-06-19T08:38:45.246Z,82.1
2017-06-19T08:39:55.125Z,81.32
2017-06-19T08:41:04.355Z,79.29
2017-06-19T08:42:13.304Z,81.71
2017-06-19T08:43:22.547Z,81.13
2017-06-19T08:44:31.445Z,80.16
2017-06-19T08:45:40.348Z,80.4
2017-06-19T08:46:49.566Z,79.1
2017-06-19T08:47:58.514Z,76.62
2017-06-19T08:49:07.733Z,78.31
2017-06-19T08:50:16.628Z,77.34
2017-06-19T08:51:25.528Z,77.63
2017-06-19T08:52:35.081Z,76.37
2017-06-19T08:53:44.081Z,77.24
2017-06-19T08:54:53.972Z,76.37
2017-06-19T08:56:02.873Z,76.28
2017-06-19T08:57:12.751Z,75.31
2017-06-19T08:58:21.645Z,74.34
2017-06-19T08:59:30.967Z,75.5
2017-06-19T09:00:39.874Z,74.05
2017-06-19T09:01:48.770Z,73.89
2017-06-19T09:02:58.004Z,75.02
2017-06-19T09:04:06.904Z,73.95
2017-06-19T09:05:15.799Z,75.4
2017-06-19T09:06:24.706Z,73.66
2017-06-19T09:07:33.926Z,75.63
2017-06-19T09:08:42.829Z,75.02
2017-06-19T09:09:51.728Z,75.02
2017-06-19T09:11:01.429Z,73.95
2017-06-19T09:12:10.662Z,74.63
2017-06-19T09:13:20.212Z,74.18
2017-06-19T09:14:29.108Z,72.83
2017-06-19T09:15:38.007Z,71.76
2017-06-19T09:16:47.051Z,72.38
2017-06-19T09:17:55.950Z,72.34
2017-06-19T09:19:04.848Z,73.83
2017-06-19T09:20:14.394Z,71.18
2017-06-19T09:21:23.290Z,72.34
2017-06-19T09:22:32.344Z,73.5
2017-06-19T09:23:41.568Z,72.05
2017-06-19T09:24:50.467Z,72.77
2017-06-19T09:25:59.363Z,71.8
2017-06-19T09:27:08.265Z,72.47
2017-06-19T09:28:17.811Z,72.86
2017-06-19T09:29:26.756Z,73.15
2017-06-19T09:30:35.657Z,72.12
2017-06-19T09:31:45.215Z,71.64
2017-06-19T09:32:54.765Z,68.92
2017-06-19T09:34:04.189Z,65.92
2017-06-19T09:35:13.413Z,67.18
2017-06-19T09:36:22.310Z,68.44
2017-06-19T09:37:31.537Z,69.41
2017-06-19T09:38:40.759Z,69.31
2017-06-19T09:39:50.361Z,69.12
2017-06-19T09:40:59.916Z,68.73
2017-06-19T09:42:09.140Z,68.34
2017-06-19T09:43:18.035Z,68.44
2017-06-19T09:44:27.586Z,67.57
2017-06-19T09:45:36.907Z,67.66
2017-06-19T09:46:45.804Z,68.34
2017-06-19T09:47:55.028Z,68.24
2017-06-19T09:49:04.247Z,69.5
2017-06-19T09:50:13.145Z,66.63
2017-06-19T09:51:22.040Z,67.5
2017-06-19T09:52:30.945Z,67.4
2017-06-19T09:53:40.170Z,66.24
2017-06-19T09:54:49.393Z,65.66
2017-06-19T09:55:58.941Z,65.95
2017-06-19T09:57:08.214Z,65.37
2017-06-19T09:58:17.123Z,66.34
2017-06-19T09:59:27.030Z,67.02
2017-06-19T10:00:36.577Z,66.76
2017-06-19T10:01:46.126Z,65.4
2017-06-19T10:02:55.129Z,65.79
2017-06-19T10:04:04.710Z,64.72
2017-06-19T10:05:13.933Z,64.82
2017-06-19T10:06:22.833Z,65.01
2017-06-19T10:07:31.733Z,67.05
2017-06-19T10:08:40.677Z,67.05
2017-06-19T10:09:49.574Z,66.86
2017-06-19T10:10:58.477Z,66.47
2017-06-19T10:12:07.695Z,65.63
2017-06-19T10:13:16.595Z,63.2
2017-06-19T10:14:25.494Z,64.36
2017-06-19T10:15:34.392Z,64.85
2017-06-19T10:16:43.620Z,63.68
2017-06-19T10:17:52.852Z,64.26
2017-06-19T10:19:01.754Z,63.29
2017-06-19T10:20:11.140Z,65.43
2017-06-19T10:21:20.369Z,64.75
2017-06-19T10:22:29.592Z,64.85
2017-06-19T10:23:38.489Z,64.85
2017-06-19T10:24:47.390Z,66.14
2017-06-19T10:25:56.763Z,64.2
2017-06-19T10:27:05.701Z,62.84
2017-06-19T10:28:15.261Z,62.74
2017-06-19T10:29:24.171Z,64.49
2017-06-19T10:30:33.088Z,64.69
2017-06-19T10:31:41.991Z,64.2
2017-06-19T10:32:50.891Z,63.81
2017-06-19T10:33:59.797Z,63.62
2017-06-19T10:35:08.712Z,64.4
2017-06-19T10:36:17.932Z,62.77
2017-06-19T10:37:26.828Z,62.84
2017-06-19T10:38:36.049Z,63.59
2017-06-19T10:39:45.613Z,64.01
2017-06-19T10:40:54.508Z,62.65
2017-06-19T10:42:04.065Z,62.77
2017-06-19T10:43:12.966Z,63.45
2017-06-19T10:44:21.864Z,63.26
2017-06-19T10:45:30.768Z,63.36
2017-06-19T10:46:39.672Z,62.29
2017-06-19T10:47:49.223Z,63
2017-06-19T10:48:58.223Z,63.2
2017-06-19T10:50:07.447Z,63.59
2017-06-19T10:51:16.347Z,61.74
2017-06-19T10:52:25.568Z,61.74
2017-06-19T10:53:34.791Z,62.41
2017-06-19T10:54:43.739Z,63.1
2017-06-19T10:55:52.638Z,63.39
2017-06-19T10:57:02.188Z,61.83
2017-06-19T10:58:11.091Z,60.38
2017-06-19T10:59:20.020Z,60.67
2017-06-19T11:00:29.355Z,60.38
2017-06-19T11:01:38.291Z,60.77
2017-06-19T11:02:47.887Z,60.96
2017-06-19T11:03:56.790Z,60.5
2017-06-19T11:05:05.693Z,61.44
2017-06-19T11:06:15.241Z,60.47
2017-06-19T11:07:24.142Z,59.5
2017-06-19T11:08:33.371Z,59.43
2017-06-19T11:09:42.296Z,59.33
2017-06-19T11:10:51.197Z,59.43
2017-06-19T11:12:00.526Z,58.85
2017-06-19T11:13:09.759Z,59.14
2017-06-19T11:14:19.311Z,59.33
2017-06-19T11:15:28.218Z,57.68
2017-06-19T11:16:37.120Z,58.36
2017-06-19T11:17:46.427Z,58.33
2017-06-19T11:18:55.335Z,58.82
2017-06-19T11:20:04.885Z,59.69
2017-06-19T11:21:13.789Z,59.11
2017-06-19T11:22:22.689Z,58.85
2017-06-19T11:23:32.016Z,59.14
2017-06-19T11:24:40.922Z,57.32
2017-06-19T11:25:49.825Z,58.2
2017-06-19T11:26:58.733Z,57.12
2017-06-19T11:28:08.298Z,57.71
2017-06-19T11:29:17.445Z,58.29
2017-06-19T11:30:26.348Z,58
2017-06-19T11:31:35.252Z,57.25
2017-06-19T11:32:44.179Z,58.1
2017-06-19T11:33:53.081Z,57.61
2017-06-19T11:35:02.405Z,56.54
2017-06-19T11:36:11.637Z,55.89
2017-06-19T11:37:20.598Z,56.74
2017-06-19T11:38:29.830Z,54.52
2017-06-19T11:39:38.750Z,54.82
2017-06-19T11:40:48.078Z,56.64
2017-06-19T11:41:57.337Z,55.76
2017-06-19T11:43:06.242Z,55.08
2017-06-19T11:44:16.368Z,55.47
2017-06-19T11:45:25.633Z,54.89
2017-06-19T11:46:34.731Z,56.37
2017-06-19T11:47:43.958Z,53.94
2017-06-19T11:48:53.239Z,55.5
2017-06-19T11:50:02.469Z,53.77
2017-06-19T11:51:11.696Z,53.09
2017-06-19T11:52:20.601Z,54.46
2017-06-19T11:53:29.502Z,52.6
2017-06-19T11:54:38.410Z,52.6
2017-06-19T11:55:47.316Z,52.83
2017-06-19T11:56:56.217Z,52.73
2017-06-19T11:58:05.523Z,53.5
2017-06-19T11:59:14.755Z,52.44
2017-06-19T12:00:23.982Z,51.95
2017-06-19T12:01:33.237Z,52.95
2017-06-19T12:02:42.178Z,52.26
2017-06-19T12:03:51.663Z,51.78
2017-06-19T12:05:00.905Z,51.48
2017-06-19T12:06:10.195Z,51.97
2017-06-19T12:07:19.465Z,51.48
2017-06-19T12:08:28.690Z,51.09
2017-06-19T12:09:37.748Z,51.58
2017-06-19T12:10:46.658Z,52.24
2017-06-19T12:11:56.251Z,52.66
2017-06-19T12:13:05.167Z,51.48
2017-06-19T12:14:14.602Z,52.07
2017-06-19T12:15:23.941Z,51.39
2017-06-19T12:16:32.849Z,51.9
2017-06-19T12:17:42.079Z,51.12
2017-06-19T12:18:51.018Z,51.12
2017-06-19T12:20:00.277Z,51.12
2017-06-19T12:21:09.675Z,50.82
2017-06-19T12:22:18.912Z,49.37
2017-06-19T12:23:28.142Z,50.75
2017-06-19T12:24:37.061Z,50.65
2017-06-19T12:25:46.622Z,49.98
2017-06-19T12:26:56.270Z,49.8
2017-06-19T12:28:05.542Z,49.02
2017-06-19T12:29:14.455Z,48.63
2017-06-19T12:30:23.366Z,49.12
2017-06-19T12:31:32.603Z,49.12
2017-06-19T12:32:41.521Z,49.8
2017-06-19T12:33:50.434Z,48.83
2017-06-19T12:34:59.345Z,49.8
2017-06-19T12:36:08.600Z,50.1
2017-06-19T12:37:17.513Z,48.73
2017-06-19T12:38:26.481Z,47.17
2017-06-19T12:39:35.720Z,46.41
2017-06-19T12:40:44.671Z,45.16
2017-06-19T12:41:54.244Z,45.18
2017-06-19T12:43:03.162Z,44.69
2017-06-19T12:44:12.124Z,45.94
2017-06-19T12:45:21.365Z,45.65
2017-06-19T12:46:30.281Z,45.86
2017-06-19T12:47:39.195Z,44.79
2017-06-19T12:48:48.772Z,43.32
2017-06-19T12:49:57.748Z,44.1
2017-06-19T12:51:06.990Z,45.37
2017-06-19T12:52:16.230Z,45.67
2017-06-19T12:53:25.147Z,43.81
2017-06-19T12:54:34.063Z,43.62
2017-06-19T12:55:43.126Z,43.15
2017-06-19T12:56:52.696Z,42.95
2017-06-19T12:58:01.615Z,42.66
2017-06-19T12:59:10.530Z,42.95
2017-06-19T13:00:19.770Z,43.13
2017-06-19T13:01:29.435Z,43.03
2017-06-19T13:02:38.348Z,42.54
2017-06-19T13:03:47.261Z,42.35
2017-06-19T13:04:56.173Z,43.03
2017-06-19T13:06:05.086Z,42.64
2017-06-19T13:07:14.046Z,42.46
2017-06-19T13:08:22.971Z,41.68
2017-06-19T13:09:31.891Z,43.24
2017-06-19T13:10:40.805Z,44.32
2017-06-19T13:11:49.778Z,44.79
2017-06-19T13:12:58.710Z,44.4
2017-06-19T13:14:07.963Z,43.42
2017-06-19T13:15:16.877Z,42.27
2017-06-19T13:16:26.144Z,40.84
2017-06-19T13:17:35.387Z,40.76
2017-06-19T13:18:44.628Z,40.58
2017-06-19T13:19:53.869Z,40.11
2017-06-19T13:21:02.787Z,40.29
2017-06-19T13:22:11.722Z,41.45
2017-06-19T13:23:20.964Z,42.9
2017-06-19T13:24:29.883Z,41.82
2017-06-19T13:25:38.810Z,42.02
2017-06-19T13:26:48.060Z,41.92
2017-06-19T13:27:57.645Z,40.64
2017-06-19T13:29:06.940Z,41.15
2017-06-19T13:30:15.855Z,41.05
2017-06-19T13:31:25.432Z,39.8
2017-06-19T13:32:34.675Z,41.08
2017-06-19T13:33:43.950Z,40.19
2017-06-19T13:34:53.119Z,42.05
2017-06-19T13:36:02.373Z,40.78
2017-06-19T13:37:11.614Z,42.74
2017-06-19T13:38:20.534Z,41.84
2017-06-19T13:39:29.451Z,40.76
2017-06-19T13:40:38.665Z,39.7
2017-06-19T13:41:47.586Z,41.84
2017-06-19T13:42:56.833Z,41.03
2017-06-19T13:44:06.082Z,41.11
2017-06-19T13:45:14.993Z,39.76
2017-06-19T13:46:24.248Z,38.92
2017-06-19T13:47:33.164Z,40.58
2017-06-19T13:48:42.730Z,41.76
2017-06-19T13:49:51.674Z,40.98
2017-06-19T13:51:00.912Z,39.7
2017-06-19T13:52:09.989Z,39.14
2017-06-19T13:53:18.906Z,36.39
2017-06-19T13:54:27.831Z,38.96
2017-06-19T13:55:36.751Z,38.66
2017-06-19T13:56:45.670Z,38.54
2017-06-19T13:57:54.588Z,38.23
2017-06-19T13:59:03.501Z,37.98
2017-06-19T14:00:12.424Z,37.37
2017-06-19T14:01:21.342Z,37.56
2017-06-19T14:02:30.259Z,36.42
2017-06-19T14:03:39.275Z,35.14
2017-06-19T14:04:48.191Z,35.46
2017-06-19T14:05:57.437Z,35.24
2017-06-19T14:07:07.000Z,35.16
2017-06-19T14:08:16.242Z,34.1
2017-06-19T14:09:25.413Z,35.26
2017-06-19T14:10:34.336Z,36.54
2017-06-19T14:11:43.252Z,35.16
2017-06-19T14:12:52.496Z,36.44
2017-06-19T14:14:01.412Z,37.24
2017-06-19T14:15:10.586Z,35.2
2017-06-19T14:16:19.828Z,35.47
2017-06-19T14:17:28.749Z,33.41
2017-06-19T14:18:37.678Z,34.41
2017-06-19T14:19:46.593Z,34.31
2017-06-19T14:20:55.524Z,33.13
2017-06-19T14:22:04.770Z,31.87
2017-06-19T14:23:13.702Z,31.57
2017-06-19T14:24:22.627Z,33.07
2017-06-19T14:25:31.544Z,32.18
2017-06-19T14:26:40.891Z,31.59
2017-06-19T14:27:49.813Z,30.91
2017-06-19T14:28:58.729Z,31.9
2017-06-19T14:30:07.650Z,32.97
2017-06-19T14:31:16.920Z,32.18
2017-06-19T14:32:25.893Z,32.76
2017-06-19T14:33:34.879Z,32.26
2017-06-19T14:34:43.875Z,32.97
2017-06-19T14:35:52.909Z,32.39
2017-06-19T14:37:01.916Z,33.38
2017-06-19T14:38:10.954Z,35.33
2017-06-19T14:39:20.305Z,35.44
2017-06-19T14:40:29.225Z,34.03
2017-06-19T14:41:38.183Z,34.7
2017-06-19T14:42:47.101Z,34.59
2017-06-19T14:43:56.048Z,35.21
2017-06-19T14:45:04.970Z,36.18
2017-06-19T14:46:13.902Z,37.07
2017-06-19T14:47:23.477Z,35.59
2017-06-19T14:48:32.402Z,34.58
2017-06-19T14:49:41.325Z,35.67
2017-06-19T14:50:50.241Z,35.16
2017-06-19T14:51:59.488Z,35.24